Time;durP1;ratioP1;P1;durP2;ratioP2;P2;SDS_P1;SDS_P2;PMS_P1;PMS_P2;Temp;Humidity;BMP_temperature;BMP_pressure;BME280_temperature;BME280_humidity;BME280_pressure;Samples;Min_cycle;Max_cycle;Signal;HPM_P1;HPM_P2
2023/03/05 00:01:32;;;;;;;5.83;1.60;;;3.40;99.90;;;;;;4833686;29;21015;-57
2023/03/05 00:04:02;;;;;;;6.40;1.20;;;3.40;99.90;;;;;;4836188;29;20488;-58
2023/03/05 00:06:32;;;;;;;7.50;1.10;;;3.40;99.90;;;;;;4838891;29;20868;-57
2023/03/05 00:09:01;;;;;;;8.03;1.33;;;3.40;99.90;;;;;;4833740;29;21012;-58
2023/03/05 00:11:30;;;;;;;4.33;1.23;;;3.40;99.90;;;;;;4833808;29;20476;-58
2023/03/05 00:13:59;;;;;;;6.10;1.10;;;3.40;99.90;;;;;;4840352;29;20250;-57
2023/03/05 00:16:28;;;;;;;5.50;1.57;;;3.30;99.90;;;;;;4831849;29;20490;-57
2023/03/05 00:18:58;;;;;;;10.77;1.70;;;3.30;99.90;;;;;;4833217;29;20479;-58
2023/03/05 00:21:30;;;;;;;6.07;1.47;;;3.20;99.90;;;;;;4837493;29;20496;-58
2023/03/05 00:24:00;;;;;;;9.13;1.47;;;3.00;99.90;;;;;;4840303;29;20482;-58
2023/03/05 00:26:30;;;;;;;5.57;1.30;;;2.90;99.90;;;;;;4834359;29;20515;-57
2023/03/05 00:29:00;;;;;;;5.00;1.00;;;3.10;99.90;;;;;;4839067;29;20525;-58
2023/03/05 00:31:30;;;;;;;5.47;1.13;;;3.00;99.90;;;;;;4828273;29;20913;-58
2023/03/05 00:34:01;;;;;;;5.50;1.10;;;3.00;99.90;;;;;;4824036;29;20476;-57
2023/03/05 00:36:31;;;;;;;6.57;1.07;;;2.90;99.90;;;;;;4822698;29;20485;-58
2023/03/05 00:38:59;;;;;;;8.97;1.90;;;2.80;99.90;;;;;;4822877;29;20476;-57
2023/03/05 00:41:28;;;;;;;7.03;2.00;;;3.00;99.90;;;;;;4836184;29;20826;-57
2023/03/05 00:43:56;;;;;;;6.63;1.47;;;2.80;99.90;;;;;;4852963;29;20572;-57
2023/03/05 00:46:26;;;;;;;4.43;1.20;;;2.80;99.90;;;;;;4860778;29;20479;-58
2023/03/05 00:48:55;;;;;;;7.80;1.10;;;3.00;99.90;;;;;;4858936;29;20967;-57
2023/03/05 00:51:23;;;;;;;4.20;1.00;;;3.10;99.90;;;;;;4841962;29;20468;-58
2023/03/05 00:53:52;;;;;;;5.60;1.20;;;3.10;99.90;;;;;;4849355;29;20470;-58
2023/03/05 00:56:21;;;;;;;7.27;1.30;;;3.30;99.90;;;;;;4852120;29;20490;-58
2023/03/05 00:58:49;;;;;;;4.87;1.10;;;3.10;99.90;;;;;;4841826;29;20467;-57
2023/03/05 01:01:17;;;;;;;7.53;1.40;;;3.00;99.90;;;;;;4841132;29;20491;-58
2023/03/05 01:03:45;;;;;;;6.90;1.10;;;3.10;99.90;;;;;;4841631;29;21608;-57
2023/03/05 01:06:15;;;;;;;4.50;1.33;;;3.10;99.90;;;;;;4840616;29;20476;-57
2023/03/05 01:08:43;;;;;;;4.83;1.20;;;3.00;99.90;;;;;;4840515;29;20479;-57
2023/03/05 01:11:13;;;;;;;4.53;1.40;;;3.10;99.90;;;;;;4845935;29;20740;-57
2023/03/05 01:13:41;;;;;;;6.80;1.20;;;3.10;99.90;;;;;;4850847;29;20278;-57
2023/03/05 01:16:09;;;;;;;4.93;1.43;;;3.00;99.90;;;;;;4860186;29;20241;-57
2023/03/05 01:18:39;;;;;;;7.77;1.50;;;3.00;99.90;;;;;;4860031;29;20466;-56
2023/03/05 01:21:08;;;;;;;8.30;1.77;;;3.00;99.90;;;;;;4833442;29;20507;-57
2023/03/05 01:23:37;;;;;;;8.73;1.20;;;2.90;99.90;;;;;;4852484;29;20986;-58
2023/03/05 01:26:05;;;;;;;5.93;1.20;;;2.90;99.90;;;;;;4842767;29;20235;-58
2023/03/05 01:28:36;;;;;;;5.40;1.47;;;2.90;99.90;;;;;;4840296;29;20522;-57
2023/03/05 01:31:08;;;;;;;7.73;1.53;;;3.00;99.90;;;;;;4841262;29;20496;-57
2023/03/05 01:33:36;;;;;;;7.47;1.60;;;3.00;99.90;;;;;;4841581;29;20837;-58
2023/03/05 01:36:08;;;;;;;9.23;1.80;;;2.90;99.90;;;;;;4841644;29;20468;-58
2023/03/05 01:38:36;;;;;;;4.80;1.23;;;2.90;99.90;;;;;;4840234;29;20479;-57
2023/03/05 01:41:05;;;;;;;4.47;1.10;;;2.80;99.90;;;;;;4844725;29;20490;-57
2023/03/05 01:43:34;;;;;;;7.00;1.20;;;3.00;99.90;;;;;;4851387;29;20576;-58
2023/03/05 01:46:36;;;;;;;2.90;1.20;;;3.00;99.90;;;;;;4858658;29;20983;-58
2023/03/05 01:49:11;;;;;;;6.97;1.30;;;3.00;99.90;;;;;;4857288;29;20470;-57
2023/03/05 01:51:45;;;;;;;6.97;1.13;;;3.10;99.90;;;;;;4841448;29;20470;-57
2023/03/05 01:54:16;;;;;;;7.07;1.30;;;3.00;99.90;;;;;;4849114;29;20470;-57
2023/03/05 01:56:47;;;;;;;10.47;1.53;;;3.00;99.90;;;;;;4849781;29;20475;-57
2023/03/05 01:59:19;;;;;;;7.97;1.53;;;2.90;99.90;;;;;;4840351;29;20483;-57
2023/03/05 02:01:51;;;;;;;6.47;1.30;;;2.90;99.90;;;;;;4841699;29;20946;-57
2023/03/05 02:04:23;;;;;;;3.87;1.23;;;2.90;99.90;;;;;;4843629;29;20278;-57
2023/03/05 02:06:51;;;;;;;4.33;1.00;;;2.90;99.90;;;;;;4844681;29;20973;-58
2023/03/05 02:09:22;;;;;;;7.73;1.30;;;2.90;99.90;;;;;;4844934;29;20554;-58
2023/03/05 02:11:50;;;;;;;5.03;1.10;;;2.80;99.90;;;;;;4852174;29;20490;-58
2023/03/05 02:14:21;;;;;;;6.37;1.00;;;2.80;99.90;;;;;;4855182;29;20482;-58
2023/03/05 02:16:49;;;;;;;6.03;0.83;;;2.70;99.90;;;;;;4861551;29;20843;-58
2023/03/05 02:19:17;;;;;;;5.60;0.87;;;2.60;99.90;;;;;;4860243;29;20891;-57
2023/03/05 02:21:49;;;;;;;6.37;1.07;;;2.40;99.90;;;;;;4844367;29;20493;-58
2023/03/05 02:24:19;;;;;;;3.83;0.80;;;2.40;99.90;;;;;;4856611;29;20484;-57
2023/03/05 02:26:47;;;;;;;4.83;1.00;;;2.40;99.90;;;;;;4852834;29;20564;-58
2023/03/05 02:29:19;;;;;;;4.10;0.80;;;2.30;99.90;;;;;;4844609;29;20479;-57
2023/03/05 02:31:48;;;;;;;3.53;0.60;;;2.30;99.90;;;;;;4843689;29;20516;-56
2023/03/05 02:34:16;;;;;;;4.20;0.83;;;2.30;99.90;;;;;;4844509;29;20895;-57
2023/03/05 02:36:44;;;;;;;3.40;0.60;;;2.30;99.90;;;;;;4844024;29;20971;-57
2023/03/05 02:39:14;;;;;;;2.57;0.80;;;2.30;99.90;;;;;;4842884;29;20470;-57
2023/03/05 02:41:42;;;;;;;2.93;0.70;;;2.30;99.90;;;;;;4851758;29;20489;-57
2023/03/05 02:44:11;;;;;;;4.50;0.93;;;2.40;99.90;;;;;;4853534;29;20489;-57
2023/03/05 02:46:39;;;;;;;4.37;0.77;;;2.40;99.90;;;;;;4861075;29;20572;-57
2023/03/05 02:49:08;;;;;;;5.03;1.00;;;2.50;99.90;;;;;;4854875;29;20485;-57
2023/03/05 02:51:36;;;;;;;5.80;0.80;;;2.60;99.90;;;;;;4854416;29;20522;-57
2023/03/05 02:54:04;;;;;;;3.60;0.97;;;2.60;99.90;;;;;;4857835;29;20525;-57
2023/03/05 02:56:34;;;;;;;4.23;1.00;;;2.60;99.90;;;;;;4847438;29;20479;-57
2023/03/05 02:59:02;;;;;;;3.73;1.10;;;2.60;99.90;;;;;;4842689;29;20478;-57
2023/03/05 03:01:30;;;;;;;2.80;0.87;;;2.60;99.90;;;;;;4841921;29;20859;-57
2023/03/05 03:03:58;;;;;;;1.43;0.70;;;2.60;99.90;;;;;;4842568;29;20881;-57
2023/03/05 03:06:27;;;;;;;4.50;1.00;;;2.50;99.90;;;;;;4843715;29;20475;-57
2023/03/05 03:08:55;;;;;;;2.97;0.73;;;2.60;99.90;;;;;;4843285;29;20495;-57
2023/03/05 03:11:23;;;;;;;3.27;0.80;;;2.60;99.90;;;;;;4848688;29;20489;-57
2023/03/05 03:13:52;;;;;;;4.60;0.70;;;2.50;99.90;;;;;;4853954;29;20509;-56
2023/03/05 03:16:21;;;;;;;3.73;1.00;;;2.50;99.90;;;;;;4861874;29;20482;-57
2023/03/05 03:18:49;;;;;;;5.03;1.00;;;2.50;99.90;;;;;;4860955;29;20456;-57
2023/03/05 03:21:19;;;;;;;5.23;1.27;;;2.50;99.90;;;;;;4843261;29;20466;-57
2023/03/05 03:23:47;;;;;;;5.90;1.07;;;2.40;99.90;;;;;;4855403;29;20525;-57
2023/03/05 03:26:16;;;;;;;5.87;1.00;;;2.40;99.90;;;;;;4835470;29;20498;-57
2023/03/05 03:28:44;;;;;;;5.13;1.40;;;2.40;99.90;;;;;;4842871;29;20477;-58
2023/03/05 03:31:13;;;;;;;4.00;0.97;;;2.30;99.90;;;;;;4843112;29;20487;-57
2023/03/05 03:33:42;;;;;;;2.33;1.00;;;2.50;99.90;;;;;;4842944;29;20477;-58
2023/03/05 03:36:10;;;;;;;2.77;0.80;;;2.40;99.90;;;;;;4843509;29;20862;-57
2023/03/05 03:38:39;;;;;;;3.33;0.80;;;2.40;99.90;;;;;;4843201;29;20470;-57
2023/03/05 03:41:07;;;;;;;2.20;0.77;;;2.20;99.90;;;;;;4843329;29;20484;-57
2023/03/05 03:43:36;;;;;;;3.07;0.87;;;2.20;99.90;;;;;;4850629;29;20498;-57
2023/03/05 03:46:05;;;;;;;5.13;1.27;;;2.20;99.90;;;;;;4825146;29;20482;-57
2023/03/05 03:48:35;;;;;;;3.60;0.90;;;2.20;99.90;;;;;;4824888;29;20483;-57
2023/03/05 03:51:07;;;;;;;3.03;0.80;;;2.20;99.90;;;;;;4842166;29;20536;-57
2023/03/05 03:53:35;;;;;;;2.93;0.70;;;2.20;99.90;;;;;;4855022;29;20477;-57
2023/03/05 03:56:04;;;;;;;3.90;0.90;;;2.20;99.90;;;;;;4842978;29;20590;-57
2023/03/05 03:58:32;;;;;;;3.07;0.70;;;2.30;99.90;;;;;;4842634;29;20480;-58
2023/03/05 04:01:00;;;;;;;2.73;0.70;;;2.30;99.90;;;;;;4842304;29;20847;-58
2023/03/05 04:03:28;;;;;;;2.40;0.70;;;2.30;99.90;;;;;;4842496;29;20498;-57
2023/03/05 04:05:57;;;;;;;2.07;0.73;;;2.30;99.90;;;;;;4842930;29;20500;-57
2023/03/05 04:08:25;;;;;;;3.60;0.77;;;2.30;99.90;;;;;;4842513;29;20481;-57
2023/03/05 04:10:53;;;;;;;4.70;0.70;;;2.30;99.90;;;;;;4842226;29;20485;-57
2023/03/05 04:13:22;;;;;;;4.60;0.77;;;2.30;99.90;;;;;;4850543;29;20835;-57
2023/03/05 04:15:50;;;;;;;4.57;0.80;;;2.30;99.90;;;;;;4858195;29;20465;-57
2023/03/05 04:18:18;;;;;;;4.07;0.90;;;2.30;99.90;;;;;;4861277;29;20518;-57
2023/03/05 04:20:46;;;;;;;4.27;1.00;;;2.30;99.90;;;;;;4845157;29;20480;-57
2023/03/05 04:23:16;;;;;;;4.13;1.10;;;2.30;99.90;;;;;;4851180;29;20826;-57
2023/03/05 04:25:44;;;;;;;3.70;0.80;;;2.30;99.90;;;;;;4852844;29;20479;-56
2023/03/05 04:28:12;;;;;;;8.70;1.17;;;2.30;99.90;;;;;;4861025;29;20970;-57
2023/03/05 04:30:40;;;;;;;3.67;1.33;;;2.30;99.90;;;;;;4849590;29;20474;-57
2023/03/05 04:33:08;;;;;;;4.93;1.00;;;2.30;99.90;;;;;;4842580;29;20483;-57
2023/03/05 04:35:36;;;;;;;5.80;0.90;;;2.30;99.90;;;;;;4842017;29;20485;-57
2023/03/05 04:38:04;;;;;;;5.00;1.00;;;2.30;99.90;;;;;;4841953;29;20480;-57
2023/03/05 04:40:34;;;;;;;4.03;1.00;;;2.30;99.90;;;;;;4841987;29;20476;-56
2023/03/05 04:43:03;;;;;;;4.57;1.30;;;2.30;99.90;;;;;;4849515;29;20500;-57
2023/03/05 04:45:31;;;;;;;3.60;1.10;;;2.30;99.90;;;;;;4856380;29;20470;-57
2023/03/05 04:48:00;;;;;;;4.73;1.00;;;2.30;99.90;;;;;;4860807;29;20481;-57
2023/03/05 04:50:28;;;;;;;6.37;1.23;;;2.40;99.90;;;;;;4847222;29;20480;-57
2023/03/05 04:52:57;;;;;;;5.93;1.00;;;2.40;99.90;;;;;;4849021;29;20477;-57
2023/03/05 04:55:25;;;;;;;2.80;0.80;;;2.30;99.90;;;;;;4846602;29;20473;-56
2023/03/05 04:57:54;;;;;;;3.57;0.90;;;2.30;99.90;;;;;;4841996;29;20492;-57
2023/03/05 05:00:23;;;;;;;4.63;1.10;;;2.30;99.90;;;;;;4841659;29;20475;-57
2023/03/05 05:02:52;;;;;;;6.60;1.40;;;2.30;99.90;;;;;;4842137;29;20493;-57
2023/03/05 05:05:22;;;;;;;2.97;0.90;;;2.40;99.90;;;;;;4842415;29;20997;-57
2023/03/05 05:07:53;;;;;;;3.37;1.07;;;2.50;99.90;;;;;;4842215;29;20486;-57
2023/03/05 05:10:22;;;;;;;4.07;1.10;;;2.40;99.90;;;;;;4842272;29;20476;-58
2023/03/05 05:12:50;;;;;;;5.17;1.23;;;2.80;99.90;;;;;;4849381;29;20477;-57
2023/03/05 05:15:20;;;;;;;7.63;1.30;;;2.50;99.90;;;;;;4854468;29;20486;-57
2023/03/05 05:17:48;;;;;;;5.40;1.30;;;2.40;99.90;;;;;;4843634;29;20483;-57
2023/03/05 05:20:17;;;;;;;7.50;1.03;;;2.40;99.90;;;;;;4841712;29;20478;-57
2023/03/05 05:22:45;;;;;;;3.17;1.00;;;2.30;99.90;;;;;;4847066;29;20505;-57
2023/03/05 05:25:13;;;;;;;1.97;1.23;;;2.40;99.90;;;;;;4848124;29;20477;-57
2023/03/05 05:27:41;;;;;;;5.80;1.13;;;2.40;99.90;;;;;;4841820;29;20969;-57
2023/03/05 05:30:10;;;;;;;2.57;0.97;;;2.50;99.90;;;;;;4841999;29;20478;-57
2023/03/05 05:32:40;;;;;;;3.10;1.20;;;2.40;99.90;;;;;;4841458;29;20475;-57
2023/03/05 05:35:09;;;;;;;5.20;1.53;;;2.30;99.90;;;;;;4843203;29;20460;-57
2023/03/05 05:37:37;;;;;;;6.60;1.00;;;2.30;99.90;;;;;;4845375;29;20829;-57
2023/03/05 05:40:07;;;;;;;3.60;1.20;;;2.30;99.90;;;;;;4848828;29;20473;-57
2023/03/05 05:42:35;;;;;;;5.63;1.10;;;2.30;99.90;;;;;;4848088;29;20479;-57
2023/03/05 05:45:04;;;;;;;4.83;0.93;;;2.20;99.90;;;;;;4840589;29;20872;-58
2023/03/05 05:47:33;;;;;;;3.63;1.10;;;2.20;99.90;;;;;;4831562;29;20472;-57
2023/03/05 05:50:02;;;;;;;2.70;1.07;;;2.20;99.90;;;;;;4837151;29;20476;-57
2023/03/05 05:52:30;;;;;;;4.87;0.90;;;2.20;99.90;;;;;;4838691;29;20978;-57
2023/03/05 05:54:58;;;;;;;4.00;1.10;;;2.20;99.90;;;;;;4850707;29;20485;-57
2023/03/05 05:57:26;;;;;;;3.53;1.07;;;2.20;99.90;;;;;;4834572;29;20832;-56
2023/03/05 05:59:54;;;;;;;4.77;1.13;;;2.20;99.90;;;;;;4834737;29;20832;-57
2023/03/05 06:02:22;;;;;;;5.70;0.93;;;2.20;99.90;;;;;;4834492;29;20488;-57
2023/03/05 06:04:50;;;;;;;4.63;1.17;;;2.20;99.90;;;;;;4828631;29;20506;-57
2023/03/05 06:07:20;;;;;;;4.20;1.17;;;2.20;99.90;;;;;;4826656;29;20865;-57
2023/03/05 06:09:48;;;;;;;3.53;1.10;;;2.20;99.90;;;;;;4826062;29;20468;-58
2023/03/05 06:12:17;;;;;;;3.17;0.90;;;2.10;99.90;;;;;;4850982;29;20470;-58
2023/03/05 06:14:45;;;;;;;1.40;0.80;;;2.10;99.90;;;;;;4853850;29;20628;-56
2023/03/05 06:17:14;;;;;;;4.73;1.17;;;2.30;99.90;;;;;;4844875;29;20475;-58
2023/03/05 06:19:57;;;;;;;2.47;0.80;;;2.30;99.90;;;;;;4845571;29;20505;-57
2023/03/05 06:22:26;;;;;;;2.93;0.83;;;2.40;99.90;;;;;;4847477;29;20564;-57
2023/03/05 06:24:54;;;;;;;4.43;0.90;;;2.40;99.90;;;;;;4854995;29;20502;-56
2023/03/05 06:27:22;;;;;;;3.90;1.20;;;2.30;99.90;;;;;;4863063;29;20486;-57
2023/03/05 06:29:53;;;;;;;2.47;0.90;;;2.30;99.90;;;;;;4838783;29;20494;-57
2023/03/05 06:32:21;;;;;;;1.83;0.80;;;2.20;99.90;;;;;;4843863;29;20477;-58
2023/03/05 06:34:49;;;;;;;3.17;0.70;;;2.30;99.90;;;;;;4844148;29;20471;-58
2023/03/05 06:37:17;;;;;;;4.53;0.90;;;2.50;99.90;;;;;;4844157;29;20475;-57
2023/03/05 06:39:46;;;;;;;2.47;0.73;;;2.40;99.90;;;;;;4844005;29;20478;-57
2023/03/05 06:42:16;;;;;;;2.93;0.77;;;2.30;99.90;;;;;;4849090;29;20488;-57
2023/03/05 06:44:45;;;;;;;3.70;1.10;;;2.20;99.90;;;;;;4854533;29;21017;-57
2023/03/05 06:47:15;;;;;;;4.70;1.27;;;2.30;99.90;;;;;;4862124;29;20482;-58
2023/03/05 06:49:43;;;;;;;2.70;1.20;;;2.30;99.90;;;;;;4857684;29;20485;-58
2023/03/05 06:52:11;;;;;;;3.00;1.10;;;2.30;99.90;;;;;;4844259;29;20476;-58
2023/03/05 06:54:40;;;;;;;4.20;1.23;;;2.30;99.90;;;;;;4851376;29;20899;-58
2023/03/05 06:57:10;;;;;;;3.57;1.10;;;2.20;99.90;;;;;;4862333;29;20863;-57
2023/03/05 06:59:38;;;;;;;4.40;1.37;;;2.20;99.90;;;;;;4852637;29;20492;-57
2023/03/05 07:02:08;;;;;;;2.80;0.90;;;2.20;99.90;;;;;;4842243;29;20481;-57
2023/03/05 07:04:36;;;;;;;4.70;1.20;;;2.20;99.90;;;;;;4836160;29;20503;-57
2023/03/05 07:07:05;;;;;;;4.13;1.07;;;2.20;99.90;;;;;;4833355;29;20574;-58
2023/03/05 07:09:33;;;;;;;5.07;1.20;;;2.20;99.90;;;;;;4828495;29;20494;-56
2023/03/05 07:12:01;;;;;;;3.97;1.00;;;2.20;99.90;;;;;;4839298;29;20826;-57
2023/03/05 07:14:30;;;;;;;2.10;1.00;;;2.20;99.90;;;;;;4839310;29;20486;-57
2023/03/05 07:16:58;;;;;;;3.70;1.10;;;2.20;99.90;;;;;;4833155;29;20466;-57
2023/03/05 07:19:26;;;;;;;2.40;0.97;;;2.20;99.90;;;;;;4835144;29;20856;-57
2023/03/05 07:21:54;;;;;;;3.10;0.90;;;2.20;99.90;;;;;;4842552;29;20490;-58
2023/03/05 07:24:23;;;;;;;3.97;1.20;;;2.30;99.90;;;;;;4853646;29;20860;-58
2023/03/05 07:26:51;;;;;;;5.60;1.20;;;2.30;99.90;;;;;;4844965;29;20476;-57
2023/03/05 07:29:19;;;;;;;2.93;0.90;;;2.30;99.90;;;;;;4837625;29;20476;-57
2023/03/05 07:31:49;;;;;;;2.27;0.80;;;2.30;99.90;;;;;;4824601;29;20484;-57
2023/03/05 07:34:17;;;;;;;2.97;0.93;;;2.20;99.90;;;;;;4833996;29;20479;-57
2023/03/05 07:36:45;;;;;;;3.17;1.00;;;2.30;99.90;;;;;;4843006;29;20478;-58
2023/03/05 07:39:13;;;;;;;5.03;0.97;;;2.30;99.90;;;;;;4830618;29;20493;-58
2023/03/05 07:41:41;;;;;;;2.83;1.13;;;2.20;99.90;;;;;;4850864;29;20477;-57
2023/03/05 07:44:10;;;;;;;2.80;0.93;;;2.20;99.90;;;;;;4848884;29;20501;-57
2023/03/05 07:46:38;;;;;;;8.43;1.00;;;2.20;99.90;;;;;;4824970;29;20498;-57
2023/03/05 07:49:07;;;;;;;2.20;1.10;;;2.10;99.90;;;;;;4825118;29;20981;-57
2023/03/05 07:51:36;;;;;;;3.73;0.90;;;2.10;99.90;;;;;;4848989;29;20475;-58
2023/03/05 07:54:05;;;;;;;2.93;0.70;;;2.10;99.90;;;;;;4840593;29;21016;-57
2023/03/05 07:56:35;;;;;;;5.63;1.37;;;2.10;99.90;;;;;;4833580;29;20490;-57
2023/03/05 07:59:05;;;;;;;3.97;0.80;;;2.10;99.90;;;;;;4842253;29;20796;-57
2023/03/05 08:01:34;;;;;;;5.60;0.90;;;2.10;99.90;;;;;;4831212;29;20491;-58
2023/03/05 08:04:02;;;;;;;5.07;0.93;;;2.20;99.90;;;;;;4842770;29;20850;-57
2023/03/05 08:06:32;;;;;;;5.97;1.37;;;2.20;99.90;;;;;;4842801;29;20556;-58
2023/03/05 08:09:00;;;;;;;5.27;0.93;;;2.30;99.90;;;;;;4842766;29;20479;-57
2023/03/05 08:11:28;;;;;;;4.00;0.83;;;2.50;99.90;;;;;;4847222;29;20473;-57
2023/03/05 08:13:58;;;;;;;5.17;0.90;;;2.60;99.90;;;;;;4846809;29;20529;-57
2023/03/05 08:16:27;;;;;;;3.70;0.90;;;2.70;99.90;;;;;;4860977;29;20998;-56
2023/03/05 08:18:56;;;;;;;4.93;1.00;;;2.70;99.90;;;;;;4861172;29;20481;-57
2023/03/05 08:21:28;;;;;;;6.07;0.90;;;2.70;99.90;;;;;;4843772;29;20478;-57
2023/03/05 08:23:57;;;;;;;3.80;0.83;;;2.80;99.90;;;;;;4852179;29;21069;-57
2023/03/05 08:26:28;;;;;;;5.50;1.00;;;2.80;99.90;;;;;;4837272;29;20479;-57
2023/03/05 08:28:57;;;;;;;5.27;0.90;;;2.90;99.90;;;;;;4824196;29;20498;-57
2023/03/05 08:31:28;;;;;;;1.50;0.67;;;3.10;99.90;;;;;;4824988;29;20516;-57
2023/03/05 08:33:58;;;;;;;4.30;0.80;;;3.20;99.90;;;;;;4826319;29;20552;-58
2023/03/05 08:36:27;;;;;;;4.53;1.23;;;3.40;99.90;;;;;;4824351;29;20461;-56
2023/03/05 08:38:58;;;;;;;4.93;0.87;;;3.40;99.90;;;;;;4836431;29;20491;-58
2023/03/05 08:41:26;;;;;;;4.50;0.80;;;3.60;99.90;;;;;;4844005;29;20497;-57
2023/03/05 08:43:54;;;;;;;4.97;0.87;;;3.70;99.90;;;;;;4842963;29;20475;-57
2023/03/05 08:46:23;;;;;;;3.40;1.20;;;3.60;99.90;;;;;;4836526;29;20516;-57
2023/03/05 08:48:51;;;;;;;3.17;1.40;;;3.80;99.90;;;;;;4834418;29;20483;-58
2023/03/05 08:51:24;;;;;;;1.83;0.67;;;4.10;99.90;;;;;;4842076;29;20238;-58
2023/03/05 08:53:53;;;;;;;3.77;0.87;;;4.40;99.90;;;;;;4854153;29;20492;-57
2023/03/05 08:56:22;;;;;;;1.80;0.50;;;4.30;99.90;;;;;;4851102;29;20477;-57
2023/03/05 08:58:51;;;;;;;1.47;0.50;;;4.50;99.90;;;;;;4860604;29;20839;-58
2023/03/05 09:01:20;;;;;;;1.57;0.60;;;4.60;99.90;;;;;;4860184;29;20558;-58
2023/03/05 09:03:48;;;;;;;2.73;0.70;;;4.60;99.90;;;;;;4860461;29;20730;-58
2023/03/05 09:06:16;;;;;;;3.10;0.73;;;4.60;99.90;;;;;;4860502;29;20250;-58
2023/03/05 09:08:44;;;;;;;8.30;1.07;;;4.70;99.90;;;;;;4845732;29;20236;-57
2023/03/05 09:11:13;;;;;;;3.23;0.83;;;4.90;99.90;;;;;;4849332;29;20983;-58
2023/03/05 09:13:42;;;;;;;4.10;0.80;;;4.70;99.90;;;;;;4855978;29;20578;-58
2023/03/05 09:16:12;;;;;;;5.37;1.00;;;4.50;99.90;;;;;;4864184;29;20793;-57
2023/03/05 09:18:40;;;;;;;5.07;1.00;;;4.40;99.90;;;;;;4843224;29;20488;-58
2023/03/05 09:21:10;;;;;;;3.37;0.87;;;4.50;99.90;;;;;;4843239;29;20248;-58
2023/03/05 09:23:39;;;;;;;2.37;0.77;;;4.60;99.90;;;;;;4857828;29;20489;-57
2023/03/05 09:26:09;;;;;;;4.03;0.97;;;4.80;99.90;;;;;;4856699;29;20260;-57
2023/03/05 09:28:37;;;;;;;4.57;0.90;;;5.20;99.90;;;;;;4860448;29;20238;-57
2023/03/05 09:31:09;;;;;;;2.53;0.60;;;5.40;99.90;;;;;;4837704;29;20249;-58
2023/03/05 09:33:38;;;;;;;4.53;0.80;;;5.70;99.90;;;;;;4834722;29;20665;-57
2023/03/05 09:36:18;;;;;;;2.67;0.87;;;6.10;99.90;;;;;;4827148;29;20235;-58
2023/03/05 09:38:46;;;;;;;4.07;0.97;;;5.90;99.90;;;;;;4839952;29;20249;-58
2023/03/05 09:41:20;;;;;;;6.13;0.90;;;5.90;99.90;;;;;;4844915;29;20238;-58
2023/03/05 09:43:57;;;;;;;4.47;0.77;;;5.70;99.90;;;;;;4853833;29;20230;-58
2023/03/05 09:46:37;;;;;;;1.77;0.70;;;5.40;99.90;;;;;;4863390;29;20275;-57
2023/03/05 09:49:15;;;;;;;4.53;0.77;;;5.50;99.90;;;;;;4863651;29;20607;-58
2023/03/05 09:51:45;;;;;;;2.97;0.67;;;5.70;99.90;;;;;;4863677;29;20238;-58
2023/03/05 09:54:18;;;;;;;5.83;0.93;;;6.00;99.90;;;;;;4858938;29;20600;-58
2023/03/05 09:56:49;;;;;;;5.30;0.77;;;6.30;99.90;;;;;;4855399;29;20228;-58
2023/03/05 09:59:26;;;;;;;5.87;1.27;;;6.20;99.90;;;;;;4863640;29;20238;-58
2023/03/05 10:01:59;;;;;;;5.07;0.83;;;6.00;99.90;;;;;;4847636;29;20247;-58
2023/03/05 10:04:39;;;;;;;5.10;1.40;;;5.70;99.90;;;;;;4845101;29;20271;-57
2023/03/05 10:07:15;;;;;;;3.00;0.73;;;5.50;99.90;;;;;;4837656;29;20721;-58
2023/03/05 10:09:49;;;;;;;2.57;0.63;;;5.60;99.90;;;;;;4826464;29;20247;-58
2023/03/05 10:12:24;;;;;;;6.03;0.87;;;5.80;99.90;;;;;;4843715;29;20702;-58
2023/03/05 10:14:53;;;;;;;4.50;0.90;;;6.10;99.90;;;;;;4855216;29;20258;-58
2023/03/05 10:17:48;;;;;;;3.37;0.73;;;6.30;99.90;;;;;;4863218;29;20235;-57
2023/03/05 10:20:27;;;;;;;4.70;0.70;;;6.40;99.90;;;;;;4860591;29;20238;-58
2023/03/05 10:23:11;;;;;;;5.10;0.73;;;6.50;99.90;;;;;;4845364;29;20258;-58
2023/03/05 10:25:56;;;;;;;1.57;0.40;;;6.40;99.90;;;;;;4839783;29;20236;-58
2023/03/05 10:28:34;;;;;;;1.73;0.43;;;6.30;99.90;;;;;;4835847;29;20226;-57
2023/03/05 10:31:18;;;;;;;1.87;0.60;;;6.30;99.90;;;;;;4839641;29;20261;-58
2023/03/05 10:33:58;;;;;;;2.23;0.50;;;5.90;99.90;;;;;;4841178;29;20260;-57
2023/03/05 10:36:45;;;;;;;4.20;0.57;;;5.70;99.90;;;;;;4839120;29;20607;-57
2023/03/05 10:39:40;;;;;;;1.07;0.50;;;5.70;99.90;;;;;;4839421;29;20231;-58
2023/03/05 10:42:20;;;;;;;2.07;0.50;;;5.70;99.90;;;;;;4838993;29;20243;-58
2023/03/05 10:44:52;;;;;;;3.23;0.63;;;5.70;99.90;;;;;;4839584;29;20235;-58
2023/03/05 10:47:25;;;;;;;1.50;0.50;;;5.70;99.90;;;;;;4839521;29;20239;-57
2023/03/05 10:49:56;;;;;;;1.63;0.50;;;5.90;99.90;;;;;;4839895;29;20240;-57
2023/03/05 10:52:30;;;;;;;1.60;0.50;;;6.00;99.90;;;;;;4839912;29;20243;-58
2023/03/05 10:54:59;;;;;;;3.27;0.50;;;5.80;99.90;;;;;;4838709;29;20278;-57
2023/03/05 10:57:30;;;;;;;2.27;0.50;;;5.60;99.90;;;;;;4839170;29;20236;-57
2023/03/05 11:00:07;;;;;;;3.30;0.63;;;5.50;99.90;;;;;;4839456;29;20248;-57
2023/03/05 11:02:53;;;;;;;2.20;0.80;;;5.50;99.90;;;;;;4837824;29;20742;-57
2023/03/05 11:05:41;;;;;;;3.93;0.63;;;5.50;99.90;;;;;;4837942;29;20590;-57
2023/03/05 11:08:29;;;;;;;1.03;0.37;;;5.50;99.90;;;;;;4837587;29;20243;-57
2023/03/05 11:11:10;;;;;;;3.93;0.60;;;5.60;99.90;;;;;;4837775;29;20735;-57
2023/03/05 11:13:43;;;;;;;1.30;0.50;;;5.70;99.90;;;;;;4834368;29;20739;-56
2023/03/05 11:16:17;;;;;;;2.33;0.50;;;5.60;99.90;;;;;;4838377;29;20717;-57
2023/03/05 11:18:48;;;;;;;3.37;0.80;;;5.70;99.90;;;;;;4838630;29;20759;-58
2023/03/05 11:21:26;;;;;;;1.97;0.50;;;5.80;99.90;;;;;;4839695;29;20738;-57
2023/03/05 11:24:05;;;;;;;2.10;0.50;;;5.90;99.90;;;;;;4839217;29;20651;-57
2023/03/05 11:26:34;;;;;;;2.37;0.40;;;6.00;99.90;;;;;;4839223;29;20230;-57
2023/03/05 11:29:03;;;;;;;1.20;0.40;;;5.90;99.90;;;;;;4839085;29;20566;-55
2023/03/05 11:31:33;;;;;;;3.70;0.60;;;5.70;99.90;;;;;;4837924;29;20242;-58
2023/03/05 11:34:02;;;;;;;3.43;0.70;;;5.70;99.90;;;;;;4838714;29;20239;-57
2023/03/05 11:36:34;;;;;;;3.70;0.67;;;5.60;99.90;;;;;;4836976;29;20782;-58
2023/03/05 11:39:11;;;;;;;1.60;0.50;;;5.60;99.90;;;;;;4837357;29;20236;-57
2023/03/05 11:41:42;;;;;;;2.13;0.60;;;5.70;99.90;;;;;;4837939;29;20239;-58
2023/03/05 11:44:14;;;;;;;3.13;0.60;;;5.60;99.90;;;;;;4836359;29;20597;-58
2023/03/05 11:46:47;;;;;;;1.87;0.70;;;5.50;99.90;;;;;;4837875;29;20236;-57
2023/03/05 11:49:20;;;;;;;1.53;0.50;;;5.50;99.90;;;;;;4833313;29;20317;-57
2023/03/05 11:51:57;;;;;;;3.37;0.63;;;5.50;99.90;;;;;;4836977;29;20234;-57
2023/03/05 11:54:31;;;;;;;2.73;0.70;;;5.60;99.90;;;;;;4837983;29;20243;-58
2023/03/05 11:57:02;;;;;;;2.60;0.60;;;5.70;99.90;;;;;;4838760;29;20219;-58
2023/03/05 11:59:35;;;;;;;2.97;0.60;;;5.80;99.90;;;;;;4839100;29;20275;-58
2023/03/05 12:02:03;;;;;;;5.20;0.90;;;5.80;99.90;;;;;;4837137;29;20239;-57
2023/03/05 12:04:33;;;;;;;0.90;0.40;;;5.70;99.90;;;;;;4839342;29;20239;-57
2023/03/05 12:07:04;;;;;;;2.57;0.40;;;5.70;99.90;;;;;;4836953;29;20243;-57
2023/03/05 12:09:40;;;;;;;2.20;0.73;;;5.60;99.90;;;;;;4836626;29;20569;-57
2023/03/05 12:12:21;;;;;;;4.07;0.70;;;5.40;99.90;;;;;;4835637;29;20238;-57
2023/03/05 12:14:53;;;;;;;2.80;0.60;;;5.40;99.90;;;;;;4835090;29;20626;-57
2023/03/05 12:17:27;;;;;;;3.13;0.87;;;5.50;99.90;;;;;;4837341;29;20266;-56
2023/03/05 12:20:05;;;;;;;2.80;0.80;;;5.50;99.90;;;;;;4834497;29;20247;-56
2023/03/05 12:22:38;;;;;;;6.50;0.83;;;5.60;99.90;;;;;;4835559;29;20317;-56
2023/03/05 12:25:26;;;;;;;2.63;0.80;;;5.60;99.90;;;;;;4835202;29;20227;-57
2023/03/05 12:27:55;;;;;;;3.33;0.83;;;5.40;99.90;;;;;;4836408;29;20239;-57
2023/03/05 12:30:57;;;;;;;4.27;0.70;;;5.20;99.90;;;;;;4833555;29;20231;-57
2023/03/05 12:33:36;;;;;;;6.43;0.90;;;5.00;99.90;;;;;;4835545;29;20238;-57
2023/03/05 12:36:33;;;;;;;3.33;0.70;;;5.00;99.90;;;;;;4836058;29;20231;-57
2023/03/05 12:39:42;;;;;;;4.20;0.63;;;5.10;99.90;;;;;;4837056;29;20230;-57
2023/03/05 12:42:52;;;;;;;5.33;0.97;;;5.10;99.90;;;;;;4836724;29;20704;-57
2023/03/05 12:45:39;;;;;;;3.63;0.90;;;5.20;99.90;;;;;;4837627;29;20232;-55
2023/03/05 12:48:45;;;;;;;3.07;0.97;;;5.20;99.90;;;;;;4836783;29;20239;-56
2023/03/05 12:51:30;;;;;;;2.97;1.40;;;5.20;99.90;;;;;;4836600;29;20255;-56
2023/03/05 12:54:38;;;;;;;4.07;0.80;;;5.30;99.90;;;;;;4835545;29;20270;-55
2023/03/05 12:57:18;;;;;;;4.60;0.67;;;5.30;99.90;;;;;;4835583;29;20251;-56
2023/03/05 12:59:54;;;;;;;3.70;0.70;;;5.40;99.90;;;;;;4836686;29;20250;-56
2023/03/05 13:02:27;;;;;;;2.80;0.60;;;5.50;99.90;;;;;;4835580;29;20495;-56
2023/03/05 13:05:00;;;;;;;2.97;0.50;;;5.40;99.90;;;;;;4836131;29;20250;-55
2023/03/05 13:07:28;;;;;;;5.90;0.97;;;5.40;99.90;;;;;;4834492;29;20703;-55
2023/03/05 13:09:58;;;;;;;6.83;1.30;;;5.40;99.90;;;;;;4837492;29;20236;-54
2023/03/05 13:12:29;;;;;;;8.57;1.07;;;5.50;99.90;;;;;;4836648;29;20235;-56
2023/03/05 13:15:01;;;;;;;2.77;0.60;;;5.50;99.90;;;;;;4835724;29;20258;-56
2023/03/05 13:17:36;;;;;;;4.73;1.10;;;5.50;99.90;;;;;;4836743;29;20274;-56
2023/03/05 13:20:24;;;;;;;2.93;0.50;;;5.60;99.90;;;;;;4835703;29;20317;-56